sensor_id;sensor_type;location;lat;lon;timestamp;temperature;humidity
17442;DHT22;8838;50.144;8.176;2023-05-06T00:02:25;12.70;99.90
17442;DHT22;8838;50.144;8.176;2023-05-06T00:04:53;12.50;99.90
17442;DHT22;8838;50.144;8.176;2023-05-06T00:07:20;12.30;99.90
17442;DHT22;8838;50.144;8.176;2023-05-06T00:09:47;12.30;99.90
17442;DHT22;8838;50.144;8.176;2023-05-06T00:12:14;12.20;99.90
17442;DHT22;8838;50.144;8.176;2023-05-06T00:14:41;12.20;99.90
17442;DHT22;8838;50.144;8.176;2023-05-06T00:17:09;12.40;99.90
17442;DHT22;8838;50.144;8.176;2023-05-06T00:19:36;12.50;99.90
17442;DHT22;8838;50.144;8.176;2023-05-06T00:22:03;12.40;99.90
17442;DHT22;8838;50.144;8.176;2023-05-06T00:24:30;12.30;99.90
17442;DHT22;8838;50.144;8.176;2023-05-06T00:26:57;12.20;99.90
17442;DHT22;8838;50.144;8.176;2023-05-06T00:29:23;12.10;99.90
17442;DHT22;8838;50.144;8.176;2023-05-06T00:31:50;12.10;99.90
17442;DHT22;8838;50.144;8.176;2023-05-06T00:34:18;12.20;99.90
17442;DHT22;8838;50.144;8.176;2023-05-06T00:36:45;12.10;99.90
17442;DHT22;8838;50.144;8.176;2023-05-06T00:39:12;11.90;99.90
17442;DHT22;8838;50.144;8.176;2023-05-06T00:41:39;11.90;99.90
17442;DHT22;8838;50.144;8.176;2023-05-06T00:44:05;11.80;99.90
17442;DHT22;8838;50.144;8.176;2023-05-06T00:46:32;11.70;99.90
17442;DHT22;8838;50.144;8.176;2023-05-06T00:48:59;11.60;99.90
17442;DHT22;8838;50.144;8.176;2023-05-06T00:51:27;11.60;99.90
17442;DHT22;8838;50.144;8.176;2023-05-06T00:53:55;11.50;99.90
17442;DHT22;8838;50.144;8.176;2023-05-06T00:56:22;11.60;99.90
17442;DHT22;8838;50.144;8.176;2023-05-06T00:58:49;11.70;99.90
17442;DHT22;8838;50.144;8.176;2023-05-06T01:01:16;11.60;99.90
17442;DHT22;8838;50.144;8.176;2023-05-06T01:03:43;11.60;99.90
17442;DHT22;8838;50.144;8.176;2023-05-06T01:06:17;11.60;99.90
17442;DHT22;8838;50.144;8.176;2023-05-06T01:08:53;11.50;99.90
17442;DHT22;8838;50.144;8.176;2023-05-06T01:11:28;11.40;99.90
17442;DHT22;8838;50.144;8.176;2023-05-06T01:14:01;11.40;99.90
17442;DHT22;8838;50.144;8.176;2023-05-06T01:16:31;11.40;99.90
17442;DHT22;8838;50.144;8.176;2023-05-06T01:19:01;11.40;99.90
17442;DHT22;8838;50.144;8.176;2023-05-06T01:21:31;11.50;99.90
17442;DHT22;8838;50.144;8.176;2023-05-06T01:24:01;11.30;99.90
17442;DHT22;8838;50.144;8.176;2023-05-06T01:26:28;11.20;99.90
17442;DHT22;8838;50.144;8.176;2023-05-06T01:28:55;11.10;99.90
17442;DHT22;8838;50.144;8.176;2023-05-06T01:31:24;11.10;99.90
17442;DHT22;8838;50.144;8.176;2023-05-06T01:34:01;11.20;99.90
17442;DHT22;8838;50.144;8.176;2023-05-06T01:36:36;11.10;99.90
17442;DHT22;8838;50.144;8.176;2023-05-06T01:39:11;11.00;99.90
17442;DHT22;8838;50.144;8.176;2023-05-06T01:41:39;11.00;99.90
17442;DHT22;8838;50.144;8.176;2023-05-06T01:44:07;10.80;99.90
17442;DHT22;8838;50.144;8.176;2023-05-06T01:46:34;10.70;99.90
17442;DHT22;8838;50.144;8.176;2023-05-06T01:49:04;10.60;99.90
17442;DHT22;8838;50.144;8.176;2023-05-06T01:51:31;10.60;99.90
17442;DHT22;8838;50.144;8.176;2023-05-06T01:53:58;10.80;99.90
17442;DHT22;8838;50.144;8.176;2023-05-06T01:56:26;10.90;99.90
17442;DHT22;8838;50.144;8.176;2023-05-06T01:58:54;10.90;99.90
17442;DHT22;8838;50.144;8.176;2023-05-06T02:01:22;10.90;99.90
17442;DHT22;8838;50.144;8.176;2023-05-06T02:03:48;10.70;99.90
17442;DHT22;8838;50.144;8.176;2023-05-06T02:06:15;10.60;99.90
17442;DHT22;8838;50.144;8.176;2023-05-06T02:08:42;10.60;99.90
17442;DHT22;8838;50.144;8.176;2023-05-06T02:11:09;10.50;99.90
17442;DHT22;8838;50.144;8.176;2023-05-06T02:13:37;10.40;99.90
17442;DHT22;8838;50.144;8.176;2023-05-06T02:16:04;10.30;99.90
17442;DHT22;8838;50.144;8.176;2023-05-06T02:18:31;10.20;99.90
17442;DHT22;8838;50.144;8.176;2023-05-06T02:20:57;10.10;99.90
17442;DHT22;8838;50.144;8.176;2023-05-06T02:23:24;10.10;99.90
17442;DHT22;8838;50.144;8.176;2023-05-06T02:25:51;10.20;99.90
17442;DHT22;8838;50.144;8.176;2023-05-06T02:28:18;10.20;99.90
17442;DHT22;8838;50.144;8.176;2023-05-06T02:30:46;10.20;99.90
17442;DHT22;8838;50.144;8.176;2023-05-06T02:33:12;10.10;99.90
17442;DHT22;8838;50.144;8.176;2023-05-06T02:35:39;10.10;99.90
17442;DHT22;8838;50.144;8.176;2023-05-06T02:38:06;10.10;99.90
17442;DHT22;8838;50.144;8.176;2023-05-06T02:40:33;10.10;99.90
17442;DHT22;8838;50.144;8.176;2023-05-06T02:42:59;10.20;99.90
17442;DHT22;8838;50.144;8.176;2023-05-06T02:45:26;10.20;99.90
17442;DHT22;8838;50.144;8.176;2023-05-06T02:47:55;10.10;99.90
17442;DHT22;8838;50.144;8.176;2023-05-06T02:50:22;10.00;99.90
17442;DHT22;8838;50.144;8.176;2023-05-06T02:52:48;10.00;99.90
17442;DHT22;8838;50.144;8.176;2023-05-06T02:55:15;10.10;99.90
17442;DHT22;8838;50.144;8.176;2023-05-06T02:57:42;10.20;99.90
17442;DHT22;8838;50.144;8.176;2023-05-06T03:00:10;10.10;99.90
17442;DHT22;8838;50.144;8.176;2023-05-06T03:02:37;10.00;99.90
17442;DHT22;8838;50.144;8.176;2023-05-06T03:05:06;10.00;99.90
17442;DHT22;8838;50.144;8.176;2023-05-06T03:07:34;9.90;99.90
17442;DHT22;8838;50.144;8.176;2023-05-06T03:10:01;9.80;99.90
17442;DHT22;8838;50.144;8.176;2023-05-06T03:12:28;9.80;99.90
17442;DHT22;8838;50.144;8.176;2023-05-06T03:14:55;9.70;99.90
17442;DHT22;8838;50.144;8.176;2023-05-06T03:17:21;9.70;99.90
17442;DHT22;8838;50.144;8.176;2023-05-06T03:19:48;9.60;99.90
17442;DHT22;8838;50.144;8.176;2023-05-06T03:22:18;9.60;99.90
17442;DHT22;8838;50.144;8.176;2023-05-06T03:24:44;9.50;99.90
17442;DHT22;8838;50.144;8.176;2023-05-06T03:27:11;9.50;99.90
17442;DHT22;8838;50.144;8.176;2023-05-06T03:29:38;9.50;99.90
17442;DHT22;8838;50.144;8.176;2023-05-06T03:32:05;9.50;99.90
17442;DHT22;8838;50.144;8.176;2023-05-06T03:34:32;9.50;99.90
17442;DHT22;8838;50.144;8.176;2023-05-06T03:36:59;9.50;99.90
17442;DHT22;8838;50.144;8.176;2023-05-06T03:39:27;9.40;99.90
17442;DHT22;8838;50.144;8.176;2023-05-06T03:41:53;9.40;99.90
17442;DHT22;8838;50.144;8.176;2023-05-06T03:44:20;9.40;99.90
17442;DHT22;8838;50.144;8.176;2023-05-06T03:46:47;9.40;99.90
17442;DHT22;8838;50.144;8.176;2023-05-06T03:49:14;9.30;99.90
17442;DHT22;8838;50.144;8.176;2023-05-06T03:51:40;9.40;99.90
17442;DHT22;8838;50.144;8.176;2023-05-06T03:54:07;9.40;99.90
17442;DHT22;8838;50.144;8.176;2023-05-06T03:56:35;9.30;99.90
17442;DHT22;8838;50.144;8.176;2023-05-06T03:59:02;9.30;99.90
17442;DHT22;8838;50.144;8.176;2023-05-06T04:01:29;9.30;99.90
17442;DHT22;8838;50.144;8.176;2023-05-06T04:03:56;9.20;99.90
17442;DHT22;8838;50.144;8.176;2023-05-06T04:06:22;9.20;99.90
17442;DHT22;8838;50.144;8.176;2023-05-06T04:08:50;9.20;99.90
17442;DHT22;8838;50.144;8.176;2023-05-06T04:11:17;9.20;99.90
17442;DHT22;8838;50.144;8.176;2023-05-06T04:13:45;9.10;99.90
17442;DHT22;8838;50.144;8.176;2023-05-06T04:16:12;9.00;99.90
17442;DHT22;8838;50.144;8.176;2023-05-06T04:18:39;9.00;99.90
17442;DHT22;8838;50.144;8.176;2023-05-06T04:21:05;9.00;99.90
17442;DHT22;8838;50.144;8.176;2023-05-06T04:23:32;9.00;99.90
17442;DHT22;8838;50.144;8.176;2023-05-06T04:25:59;8.90;99.90
17442;DHT22;8838;50.144;8.176;2023-05-06T04:28:26;9.10;99.90
17442;DHT22;8838;50.144;8.176;2023-05-06T04:30:54;9.00;99.90
17442;DHT22;8838;50.144;8.176;2023-05-06T04:33:21;9.00;99.90
17442;DHT22;8838;50.144;8.176;2023-05-06T04:35:51;9.10;99.90
17442;DHT22;8838;50.144;8.176;2023-05-06T04:38:18;9.10;99.90
17442;DHT22;8838;50.144;8.176;2023-05-06T04:40:47;9.20;99.90
17442;DHT22;8838;50.144;8.176;2023-05-06T04:43:14;9.10;99.90
17442;DHT22;8838;50.144;8.176;2023-05-06T04:45:42;9.10;99.90
17442;DHT22;8838;50.144;8.176;2023-05-06T04:48:16;9.20;99.90
17442;DHT22;8838;50.144;8.176;2023-05-06T04:50:43;9.30;99.90
17442;DHT22;8838;50.144;8.176;2023-05-06T04:53:10;9.30;99.90
17442;DHT22;8838;50.144;8.176;2023-05-06T04:55:37;9.40;99.90
17442;DHT22;8838;50.144;8.176;2023-05-06T04:58:04;9.40;99.90
17442;DHT22;8838;50.144;8.176;2023-05-06T05:00:30;9.40;99.90
17442;DHT22;8838;50.144;8.176;2023-05-06T05:02:57;9.40;99.90
17442;DHT22;8838;50.144;8.176;2023-05-06T05:05:26;9.40;99.90
17442;DHT22;8838;50.144;8.176;2023-05-06T05:07:53;9.50;99.90
17442;DHT22;8838;50.144;8.176;2023-05-06T05:10:20;9.60;99.90
17442;DHT22;8838;50.144;8.176;2023-05-06T05:12:47;9.60;99.90
17442;DHT22;8838;50.144;8.176;2023-05-06T05:15:14;9.70;99.90
17442;DHT22;8838;50.144;8.176;2023-05-06T05:17:41;9.70;99.90
17442;DHT22;8838;50.144;8.176;2023-05-06T05:20:08;9.80;99.90
17442;DHT22;8838;50.144;8.176;2023-05-06T05:22:36;9.90;99.90
17442;DHT22;8838;50.144;8.176;2023-05-06T05:25:04;9.90;99.90
17442;DHT22;8838;50.144;8.176;2023-05-06T05:27:31;10.10;99.90
17442;DHT22;8838;50.144;8.176;2023-05-06T05:29:58;10.10;99.90
17442;DHT22;8838;50.144;8.176;2023-05-06T05:32:25;10.20;99.90
17442;DHT22;8838;50.144;8.176;2023-05-06T05:34:52;10.30;99.90
17442;DHT22;8838;50.144;8.176;2023-05-06T05:37:19;10.30;99.90
17442;DHT22;8838;50.144;8.176;2023-05-06T05:39:47;10.40;99.90
17442;DHT22;8838;50.144;8.176;2023-05-06T05:42:14;10.50;99.90
17442;DHT22;8838;50.144;8.176;2023-05-06T05:44:40;10.60;99.90
17442;DHT22;8838;50.144;8.176;2023-05-06T05:47:07;10.70;99.90
17442;DHT22;8838;50.144;8.176;2023-05-06T05:49:34;10.80;99.90
17442;DHT22;8838;50.144;8.176;2023-05-06T05:52:01;11.00;99.90
17442;DHT22;8838;50.144;8.176;2023-05-06T05:54:27;11.00;99.90
17442;DHT22;8838;50.144;8.176;2023-05-06T05:56:56;11.10;99.90
17442;DHT22;8838;50.144;8.176;2023-05-06T05:59:23;11.20;99.90
17442;DHT22;8838;50.144;8.176;2023-05-06T06:01:50;11.40;99.90
17442;DHT22;8838;50.144;8.176;2023-05-06T06:04:17;11.50;99.90
17442;DHT22;8838;50.144;8.176;2023-05-06T06:06:44;11.80;99.90
17442;DHT22;8838;50.144;8.176;2023-05-06T06:09:11;12.00;99.90
17442;DHT22;8838;50.144;8.176;2023-05-06T06:11:38;12.20;99.90
17442;DHT22;8838;50.144;8.176;2023-05-06T06:14:06;12.50;99.90
17442;DHT22;8838;50.144;8.176;2023-05-06T06:16:33;12.60;99.90
17442;DHT22;8838;50.144;8.176;2023-05-06T06:19:01;12.70;99.90
17442;DHT22;8838;50.144;8.176;2023-05-06T06:21:28;12.80;99.90
17442;DHT22;8838;50.144;8.176;2023-05-06T06:23:55;13.00;99.90
17442;DHT22;8838;50.144;8.176;2023-05-06T06:26:22;13.10;99.90
17442;DHT22;8838;50.144;8.176;2023-05-06T06:28:49;13.20;99.90
17442;DHT22;8838;50.144;8.176;2023-05-06T06:31:17;13.30;99.90
17442;DHT22;8838;50.144;8.176;2023-05-06T06:33:44;13.50;99.90
17442;DHT22;8838;50.144;8.176;2023-05-06T06:36:10;13.70;99.90
17442;DHT22;8838;50.144;8.176;2023-05-06T06:38:37;13.90;99.90
17442;DHT22;8838;50.144;8.176;2023-05-06T06:41:06;14.10;99.90
17442;DHT22;8838;50.144;8.176;2023-05-06T06:43:33;14.30;99.90
17442;DHT22;8838;50.144;8.176;2023-05-06T06:45:59;14.50;99.90
17442;DHT22;8838;50.144;8.176;2023-05-06T06:48:28;14.70;99.90
17442;DHT22;8838;50.144;8.176;2023-05-06T06:50:54;14.80;99.90
17442;DHT22;8838;50.144;8.176;2023-05-06T06:53:21;15.00;99.90
17442;DHT22;8838;50.144;8.176;2023-05-06T06:55:48;15.20;99.90
17442;DHT22;8838;50.144;8.176;2023-05-06T06:58:15;15.40;99.90
17442;DHT22;8838;50.144;8.176;2023-05-06T07:00:42;15.60;99.90
17442;DHT22;8838;50.144;8.176;2023-05-06T07:03:08;15.90;99.90
17442;DHT22;8838;50.144;8.176;2023-05-06T07:05:37;16.10;99.90
17442;DHT22;8838;50.144;8.176;2023-05-06T07:08:04;16.50;99.90
17442;DHT22;8838;50.144;8.176;2023-05-06T07:10:31;16.90;99.90
17442;DHT22;8838;50.144;8.176;2023-05-06T07:12:57;17.20;99.90
17442;DHT22;8838;50.144;8.176;2023-05-06T07:15:24;17.40;99.90
17442;DHT22;8838;50.144;8.176;2023-05-06T07:17:51;17.70;99.90
17442;DHT22;8838;50.144;8.176;2023-05-06T07:20:18;17.80;99.90
17442;DHT22;8838;50.144;8.176;2023-05-06T07:22:46;17.90;99.90
17442;DHT22;8838;50.144;8.176;2023-05-06T07:25:13;17.90;99.90
17442;DHT22;8838;50.144;8.176;2023-05-06T07:27:40;17.70;99.90
17442;DHT22;8838;50.144;8.176;2023-05-06T07:30:08;17.60;99.90
17442;DHT22;8838;50.144;8.176;2023-05-06T07:32:35;17.70;99.90
17442;DHT22;8838;50.144;8.176;2023-05-06T07:35:02;18.10;99.90
17442;DHT22;8838;50.144;8.176;2023-05-06T07:37:30;18.70;99.90
17442;DHT22;8838;50.144;8.176;2023-05-06T07:39:58;19.20;99.90
17442;DHT22;8838;50.144;8.176;2023-05-06T07:42:25;19.50;99.90
17442;DHT22;8838;50.144;8.176;2023-05-06T07:44:51;19.70;99.90
17442;DHT22;8838;50.144;8.176;2023-05-06T07:47:26;19.50;99.90
17442;DHT22;8838;50.144;8.176;2023-05-06T07:49:53;19.80;99.90
17442;DHT22;8838;50.144;8.176;2023-05-06T07:52:20;19.20;99.90
17442;DHT22;8838;50.144;8.176;2023-05-06T07:54:47;19.00;99.90
17442;DHT22;8838;50.144;8.176;2023-05-06T07:57:15;18.90;99.90
17442;DHT22;8838;50.144;8.176;2023-05-06T07:59:42;18.70;99.90
17442;DHT22;8838;50.144;8.176;2023-05-06T08:02:09;18.70;99.90
17442;DHT22;8838;50.144;8.176;2023-05-06T08:04:36;18.70;99.90
17442;DHT22;8838;50.144;8.176;2023-05-06T08:07:03;18.50;99.90
17442;DHT22;8838;50.144;8.176;2023-05-06T08:09:30;18.40;99.90
17442;DHT22;8838;50.144;8.176;2023-05-06T08:11:56;18.50;99.90
17442;DHT22;8838;50.144;8.176;2023-05-06T08:14:25;18.40;99.90
17442;DHT22;8838;50.144;8.176;2023-05-06T08:16:52;18.50;99.90
17442;DHT22;8838;50.144;8.176;2023-05-06T08:19:18;18.50;99.90
17442;DHT22;8838;50.144;8.176;2023-05-06T08:21:45;18.50;99.90
17442;DHT22;8838;50.144;8.176;2023-05-06T08:24:13;18.60;99.90
17442;DHT22;8838;50.144;8.176;2023-05-06T08:26:40;18.60;99.90
17442;DHT22;8838;50.144;8.176;2023-05-06T08:29:07;18.70;99.90
17442;DHT22;8838;50.144;8.176;2023-05-06T08:31:35;18.80;99.90
17442;DHT22;8838;50.144;8.176;2023-05-06T08:34:02;18.70;99.90
17442;DHT22;8838;50.144;8.176;2023-05-06T08:36:29;18.40;99.90
17442;DHT22;8838;50.144;8.176;2023-05-06T08:38:56;18.10;99.90
17442;DHT22;8838;50.144;8.176;2023-05-06T08:41:23;18.40;99.90
17442;DHT22;8838;50.144;8.176;2023-05-06T08:43:53;18.50;99.90
17442;DHT22;8838;50.144;8.176;2023-05-06T08:46:20;18.60;99.90
17442;DHT22;8838;50.144;8.176;2023-05-06T08:48:48;18.50;99.90
17442;DHT22;8838;50.144;8.176;2023-05-06T08:51:15;18.40;99.90
17442;DHT22;8838;50.144;8.176;2023-05-06T08:53:47;18.70;99.90
17442;DHT22;8838;50.144;8.176;2023-05-06T08:56:14;18.90;99.90
17442;DHT22;8838;50.144;8.176;2023-05-06T08:58:44;19.40;99.90
17442;DHT22;8838;50.144;8.176;2023-05-06T09:01:13;20.20;99.90
17442;DHT22;8838;50.144;8.176;2023-05-06T09:03:40;20.90;99.90
17442;DHT22;8838;50.144;8.176;2023-05-06T09:06:09;21.40;99.90
17442;DHT22;8838;50.144;8.176;2023-05-06T09:08:36;21.70;99.90
17442;DHT22;8838;50.144;8.176;2023-05-06T09:11:18;21.70;99.90
17442;DHT22;8838;50.144;8.176;2023-05-06T09:13:45;22.40;99.90
17442;DHT22;8838;50.144;8.176;2023-05-06T09:16:25;22.40;99.90
17442;DHT22;8838;50.144;8.176;2023-05-06T09:18:52;22.30;99.90
17442;DHT22;8838;50.144;8.176;2023-05-06T09:21:20;21.90;99.90
17442;DHT22;8838;50.144;8.176;2023-05-06T09:23:49;22.20;99.90
17442;DHT22;8838;50.144;8.176;2023-05-06T09:26:16;22.80;99.90
17442;DHT22;8838;50.144;8.176;2023-05-06T09:28:44;23.00;99.90
17442;DHT22;8838;50.144;8.176;2023-05-06T09:31:13;23.70;99.90
17442;DHT22;8838;50.144;8.176;2023-05-06T09:33:40;24.40;99.90
17442;DHT22;8838;50.144;8.176;2023-05-06T09:36:07;24.10;99.90
17442;DHT22;8838;50.144;8.176;2023-05-06T09:38:39;23.90;99.90
17442;DHT22;8838;50.144;8.176;2023-05-06T09:41:07;24.00;99.90
17442;DHT22;8838;50.144;8.176;2023-05-06T09:43:35;24.30;99.90
17442;DHT22;8838;50.144;8.176;2023-05-06T09:46:06;23.90;99.90
17442;DHT22;8838;50.144;8.176;2023-05-06T09:48:34;23.60;99.90
17442;DHT22;8838;50.144;8.176;2023-05-06T09:51:02;22.70;99.90
17442;DHT22;8838;50.144;8.176;2023-05-06T09:53:29;21.80;99.90
17442;DHT22;8838;50.144;8.176;2023-05-06T09:55:58;21.10;99.90
17442;DHT22;8838;50.144;8.176;2023-05-06T09:58:27;20.80;99.90
17442;DHT22;8838;50.144;8.176;2023-05-06T10:00:56;20.40;99.90
17442;DHT22;8838;50.144;8.176;2023-05-06T10:03:24;20.00;99.90
17442;DHT22;8838;50.144;8.176;2023-05-06T10:05:52;19.80;99.90
17442;DHT22;8838;50.144;8.176;2023-05-06T10:08:19;19.50;99.90
17442;DHT22;8838;50.144;8.176;2023-05-06T10:10:49;19.40;99.90
17442;DHT22;8838;50.144;8.176;2023-05-06T10:13:18;19.40;99.90
17442;DHT22;8838;50.144;8.176;2023-05-06T10:15:46;19.60;99.90
17442;DHT22;8838;50.144;8.176;2023-05-06T10:18:15;19.80;99.90
17442;DHT22;8838;50.144;8.176;2023-05-06T10:20:43;19.90;99.90
17442;DHT22;8838;50.144;8.176;2023-05-06T10:23:19;19.90;99.90
17442;DHT22;8838;50.144;8.176;2023-05-06T10:25:50;20.10;99.90
17442;DHT22;8838;50.144;8.176;2023-05-06T10:28:20;20.70;99.90
17442;DHT22;8838;50.144;8.176;2023-05-06T10:30:49;21.80;99.90
17442;DHT22;8838;50.144;8.176;2023-05-06T10:33:16;22.00;99.90
17442;DHT22;8838;50.144;8.176;2023-05-06T10:35:46;21.60;99.90
17442;DHT22;8838;50.144;8.176;2023-05-06T10:38:23;21.10;99.90
17442;DHT22;8838;50.144;8.176;2023-05-06T10:40:52;20.30;99.90
17442;DHT22;8838;50.144;8.176;2023-05-06T10:43:22;20.00;99.90
17442;DHT22;8838;50.144;8.176;2023-05-06T10:46:03;19.90;99.90
17442;DHT22;8838;50.144;8.176;2023-05-06T10:48:31;19.40;99.90
17442;DHT22;8838;50.144;8.176;2023-05-06T10:51:20;18.90;99.90
17442;DHT22;8838;50.144;8.176;2023-05-06T10:54:01;18.60;99.90
17442;DHT22;8838;50.144;8.176;2023-05-06T10:56:29;18.30;99.90
17442;DHT22;8838;50.144;8.176;2023-05-06T10:59:00;18.20;99.90
17442;DHT22;8838;50.144;8.176;2023-05-06T11:01:28;18.00;99.90
17442;DHT22;8838;50.144;8.176;2023-05-06T11:03:55;18.00;99.90
17442;DHT22;8838;50.144;8.176;2023-05-06T11:06:33;18.10;99.90
17442;DHT22;8838;50.144;8.176;2023-05-06T11:09:00;18.70;99.90
17442;DHT22;8838;50.144;8.176;2023-05-06T11:11:48;19.80;99.90
17442;DHT22;8838;50.144;8.176;2023-05-06T11:14:24;20.70;99.90
17442;DHT22;8838;50.144;8.176;2023-05-06T11:16:52;20.90;99.90
17442;DHT22;8838;50.144;8.176;2023-05-06T11:19:21;20.60;99.90
17442;DHT22;8838;50.144;8.176;2023-05-06T11:21:48;20.10;99.90
17442;DHT22;8838;50.144;8.176;2023-05-06T11:24:21;19.80;99.90
17442;DHT22;8838;50.144;8.176;2023-05-06T11:26:49;19.40;99.90
17442;DHT22;8838;50.144;8.176;2023-05-06T11:29:16;19.20;99.90
17442;DHT22;8838;50.144;8.176;2023-05-06T11:31:44;19.10;99.90
17442;DHT22;8838;50.144;8.176;2023-05-06T11:34:21;19.00;99.90
17442;DHT22;8838;50.144;8.176;2023-05-06T11:36:52;18.80;99.90
17442;DHT22;8838;50.144;8.176;2023-05-06T11:39:19;18.80;99.90
17442;DHT22;8838;50.144;8.176;2023-05-06T11:41:48;18.90;99.90
17442;DHT22;8838;50.144;8.176;2023-05-06T11:44:25;18.80;99.90
17442;DHT22;8838;50.144;8.176;2023-05-06T11:46:58;18.50;99.90
17442;DHT22;8838;50.144;8.176;2023-05-06T11:49:26;18.40;99.90
17442;DHT22;8838;50.144;8.176;2023-05-06T11:51:53;18.20;99.90
17442;DHT22;8838;50.144;8.176;2023-05-06T11:54:24;18.30;99.90
17442;DHT22;8838;50.144;8.176;2023-05-06T11:56:52;18.30;99.90
17442;DHT22;8838;50.144;8.176;2023-05-06T11:59:29;18.30;99.90
17442;DHT22;8838;50.144;8.176;2023-05-06T12:01:59;18.50;99.90
17442;DHT22;8838;50.144;8.176;2023-05-06T12:04:26;18.60;99.90
17442;DHT22;8838;50.144;8.176;2023-05-06T12:06:53;19.10;99.90
17442;DHT22;8838;50.144;8.176;2023-05-06T12:09:20;19.60;99.90
17442;DHT22;8838;50.144;8.176;2023-05-06T12:11:49;19.90;99.90
17442;DHT22;8838;50.144;8.176;2023-05-06T12:14:17;20.10;99.90
17442;DHT22;8838;50.144;8.176;2023-05-06T12:16:44;20.30;99.90
17442;DHT22;8838;50.144;8.176;2023-05-06T12:19:15;20.50;99.90
17442;DHT22;8838;50.144;8.176;2023-05-06T12:21:42;20.50;99.90
17442;DHT22;8838;50.144;8.176;2023-05-06T12:24:09;20.40;99.90
17442;DHT22;8838;50.144;8.176;2023-05-06T12:26:47;20.20;99.90
17442;DHT22;8838;50.144;8.176;2023-05-06T12:29:15;20.10;99.90
17442;DHT22;8838;50.144;8.176;2023-05-06T12:31:43;20.00;99.90
17442;DHT22;8838;50.144;8.176;2023-05-06T12:34:13;19.70;99.90
17442;DHT22;8838;50.144;8.176;2023-05-06T12:36:42;19.90;99.90
17442;DHT22;8838;50.144;8.176;2023-05-06T12:39:10;20.30;99.90
17442;DHT22;8838;50.144;8.176;2023-05-06T12:41:41;20.40;99.90
17442;DHT22;8838;50.144;8.176;2023-05-06T12:44:38;20.30;99.90
17442;DHT22;8838;50.144;8.176;2023-05-06T12:47:07;19.80;99.90
17442;DHT22;8838;50.144;8.176;2023-05-06T12:49:46;19.70;99.90
17442;DHT22;8838;50.144;8.176;2023-05-06T12:52:14;19.80;99.90
17442;DHT22;8838;50.144;8.176;2023-05-06T12:54:41;20.10;99.90
17442;DHT22;8838;50.144;8.176;2023-05-06T12:57:08;20.40;99.90
17442;DHT22;8838;50.144;8.176;2023-05-06T12:59:35;21.00;99.90
17442;DHT22;8838;50.144;8.176;2023-05-06T13:02:02;21.40;99.90
17442;DHT22;8838;50.144;8.176;2023-05-06T13:04:30;21.60;99.90
17442;DHT22;8838;50.144;8.176;2023-05-06T13:06:58;21.70;99.90
17442;DHT22;8838;50.144;8.176;2023-05-06T13:09:25;21.90;99.90
17442;DHT22;8838;50.144;8.176;2023-05-06T13:11:52;22.20;99.90
17442;DHT22;8838;50.144;8.176;2023-05-06T13:14:19;22.30;99.90
17442;DHT22;8838;50.144;8.176;2023-05-06T13:16:46;22.10;99.90
17442;DHT22;8838;50.144;8.176;2023-05-06T13:19:13;21.90;99.90
17442;DHT22;8838;50.144;8.176;2023-05-06T13:21:40;21.50;99.90
17442;DHT22;8838;50.144;8.176;2023-05-06T13:24:09;21.00;99.90
17442;DHT22;8838;50.144;8.176;2023-05-06T13:26:35;20.90;99.90
17442;DHT22;8838;50.144;8.176;2023-05-06T13:29:02;20.70;99.90
17442;DHT22;8838;50.144;8.176;2023-05-06T13:31:30;20.90;99.90
17442;DHT22;8838;50.144;8.176;2023-05-06T13:33:57;21.00;99.90
17442;DHT22;8838;50.144;8.176;2023-05-06T13:36:24;21.20;99.90
17442;DHT22;8838;50.144;8.176;2023-05-06T13:38:51;21.20;99.90
17442;DHT22;8838;50.144;8.176;2023-05-06T13:41:20;21.30;99.90
17442;DHT22;8838;50.144;8.176;2023-05-06T13:43:46;21.30;99.90
17442;DHT22;8838;50.144;8.176;2023-05-06T13:46:13;21.30;99.90
17442;DHT22;8838;50.144;8.176;2023-05-06T13:48:40;21.20;99.90
17442;DHT22;8838;50.144;8.176;2023-05-06T13:51:07;21.10;99.90
17442;DHT22;8838;50.144;8.176;2023-05-06T13:53:34;21.00;99.90
17442;DHT22;8838;50.144;8.176;2023-05-06T13:56:01;20.90;99.90
17442;DHT22;8838;50.144;8.176;2023-05-06T13:58:29;20.80;99.90
17442;DHT22;8838;50.144;8.176;2023-05-06T14:00:57;20.70;99.90
17442;DHT22;8838;50.144;8.176;2023-05-06T14:03:23;20.60;99.90
17442;DHT22;8838;50.144;8.176;2023-05-06T14:05:51;20.50;99.90
17442;DHT22;8838;50.144;8.176;2023-05-06T14:08:17;20.40;99.90
17442;DHT22;8838;50.144;8.176;2023-05-06T14:10:44;20.20;99.90
17442;DHT22;8838;50.144;8.176;2023-05-06T14:13:11;20.00;99.90
17442;DHT22;8838;50.144;8.176;2023-05-06T14:15:40;20.00;99.90
17442;DHT22;8838;50.144;8.176;2023-05-06T14:18:07;19.90;99.90
17442;DHT22;8838;50.144;8.176;2023-05-06T14:20:34;19.70;99.90
17442;DHT22;8838;50.144;8.176;2023-05-06T14:23:03;19.60;99.90
17442;DHT22;8838;50.144;8.176;2023-05-06T14:25:30;19.60;99.90
17442;DHT22;8838;50.144;8.176;2023-05-06T14:27:57;19.60;99.90
17442;DHT22;8838;50.144;8.176;2023-05-06T14:30:24;19.60;99.90
17442;DHT22;8838;50.144;8.176;2023-05-06T14:32:52;19.50;99.90
17442;DHT22;8838;50.144;8.176;2023-05-06T14:35:19;19.40;99.90
17442;DHT22;8838;50.144;8.176;2023-05-06T14:37:46;19.40;99.90
17442;DHT22;8838;50.144;8.176;2023-05-06T14:40:14;19.40;99.90
17442;DHT22;8838;50.144;8.176;2023-05-06T14:42:41;19.40;99.90
17442;DHT22;8838;50.144;8.176;2023-05-06T14:45:09;19.40;99.90
17442;DHT22;8838;50.144;8.176;2023-05-06T14:47:37;19.40;99.90
17442;DHT22;8838;50.144;8.176;2023-05-06T14:50:06;19.30;99.90
17442;DHT22;8838;50.144;8.176;2023-05-06T14:52:35;19.30;99.90
17442;DHT22;8838;50.144;8.176;2023-05-06T14:55:02;19.10;99.90
17442;DHT22;8838;50.144;8.176;2023-05-06T14:57:29;19.00;99.90
17442;DHT22;8838;50.144;8.176;2023-05-06T14:59:56;19.00;99.90
17442;DHT22;8838;50.144;8.176;2023-05-06T15:02:23;18.90;99.90
17442;DHT22;8838;50.144;8.176;2023-05-06T15:04:51;19.00;99.90
17442;DHT22;8838;50.144;8.176;2023-05-06T15:07:20;19.10;99.90
17442;DHT22;8838;50.144;8.176;2023-05-06T15:09:46;19.20;99.90
17442;DHT22;8838;50.144;8.176;2023-05-06T15:12:16;19.20;99.90
17442;DHT22;8838;50.144;8.176;2023-05-06T15:14:45;19.20;99.90
17442;DHT22;8838;50.144;8.176;2023-05-06T15:17:12;19.20;99.90
17442;DHT22;8838;50.144;8.176;2023-05-06T15:19:39;19.30;99.90
17442;DHT22;8838;50.144;8.176;2023-05-06T15:22:06;19.30;99.90
17442;DHT22;8838;50.144;8.176;2023-05-06T15:24:37;19.50;99.90
17442;DHT22;8838;50.144;8.176;2023-05-06T15:27:03;19.50;99.90
17442;DHT22;8838;50.144;8.176;2023-05-06T15:29:30;19.40;99.90
17442;DHT22;8838;50.144;8.176;2023-05-06T15:31:57;19.30;99.90
17442;DHT22;8838;50.144;8.176;2023-05-06T15:34:24;19.30;99.90
17442;DHT22;8838;50.144;8.176;2023-05-06T15:36:52;19.30;99.90
17442;DHT22;8838;50.144;8.176;2023-05-06T15:39:19;19.30;99.90
17442;DHT22;8838;50.144;8.176;2023-05-06T15:41:47;19.30;99.90
17442;DHT22;8838;50.144;8.176;2023-05-06T15:44:15;19.30;99.90
17442;DHT22;8838;50.144;8.176;2023-05-06T15:46:42;19.40;99.90
17442;DHT22;8838;50.144;8.176;2023-05-06T15:49:08;19.40;99.90
17442;DHT22;8838;50.144;8.176;2023-05-06T15:51:35;19.40;99.90
17442;DHT22;8838;50.144;8.176;2023-05-06T15:54:02;19.30;99.90